sensor_id;sensor_type;location;lat;lon;timestamp;temperature;humidity
24035;DHT22;12242;50.952;4.678;2022-07-31T00:00:49;23.40;89.40
24035;DHT22;12242;50.952;4.678;2022-07-31T00:03:16;23.40;89.10
24035;DHT22;12242;50.952;4.678;2022-07-31T00:05:46;23.30;88.90
24035;DHT22;12242;50.952;4.678;2022-07-31T00:08:13;23.20;89.40
24035;DHT22;12242;50.952;4.678;2022-07-31T00:10:41;23.10;89.90
24035;DHT22;12242;50.952;4.678;2022-07-31T00:13:08;23.00;90.20
24035;DHT22;12242;50.952;4.678;2022-07-31T00:15:36;23.00;90.40
24035;DHT22;12242;50.952;4.678;2022-07-31T00:18:03;22.90;90.50
24035;DHT22;12242;50.952;4.678;2022-07-31T00:20:31;22.90;90.70
24035;DHT22;12242;50.952;4.678;2022-07-31T00:22:58;23.00;90.70
24035;DHT22;12242;50.952;4.678;2022-07-31T00:25:27;22.90;90.60
24035;DHT22;12242;50.952;4.678;2022-07-31T00:27:55;22.90;90.70
24035;DHT22;12242;50.952;4.678;2022-07-31T00:30:22;22.90;90.60
24035;DHT22;12242;50.952;4.678;2022-07-31T00:32:54;22.90;90.90
24035;DHT22;12242;50.952;4.678;2022-07-31T00:35:21;22.80;90.90
24035;DHT22;12242;50.952;4.678;2022-07-31T00:37:51;22.80;91.00
24035;DHT22;12242;50.952;4.678;2022-07-31T00:40:49;22.70;91.20
24035;DHT22;12242;50.952;4.678;2022-07-31T00:43:19;22.70;91.60
24035;DHT22;12242;50.952;4.678;2022-07-31T00:45:47;22.60;91.60
24035;DHT22;12242;50.952;4.678;2022-07-31T00:48:27;22.60;91.80
24035;DHT22;12242;50.952;4.678;2022-07-31T00:50:57;22.60;91.70
24035;DHT22;12242;50.952;4.678;2022-07-31T00:53:27;22.60;92.20
24035;DHT22;12242;50.952;4.678;2022-07-31T00:55:54;22.70;92.20
24035;DHT22;12242;50.952;4.678;2022-07-31T00:58:24;22.70;92.00
24035;DHT22;12242;50.952;4.678;2022-07-31T01:00:53;22.70;92.00
24035;DHT22;12242;50.952;4.678;2022-07-31T01:03:31;22.70;92.10
24035;DHT22;12242;50.952;4.678;2022-07-31T01:05:58;22.80;91.80
24035;DHT22;12242;50.952;4.678;2022-07-31T01:08:28;22.90;91.80
24035;DHT22;12242;50.952;4.678;2022-07-31T01:11:02;22.90;91.90
24035;DHT22;12242;50.952;4.678;2022-07-31T01:13:42;22.80;91.90
24035;DHT22;12242;50.952;4.678;2022-07-31T01:16:14;22.80;92.00
24035;DHT22;12242;50.952;4.678;2022-07-31T01:18:45;22.90;91.90
24035;DHT22;12242;50.952;4.678;2022-07-31T01:21:31;22.70;92.00
24035;DHT22;12242;50.952;4.678;2022-07-31T01:24:11;22.70;92.20
24035;DHT22;12242;50.952;4.678;2022-07-31T01:26:58;22.60;92.50
24035;DHT22;12242;50.952;4.678;2022-07-31T01:29:41;22.40;92.70
24035;DHT22;12242;50.952;4.678;2022-07-31T01:32:19;22.30;93.00
24035;DHT22;12242;50.952;4.678;2022-07-31T01:35:02;22.20;93.30
24035;DHT22;12242;50.952;4.678;2022-07-31T01:37:48;22.20;93.50
24035;DHT22;12242;50.952;4.678;2022-07-31T01:40:21;22.10;93.70
24035;DHT22;12242;50.952;4.678;2022-07-31T01:43:04;22.10;94.00
24035;DHT22;12242;50.952;4.678;2022-07-31T01:45:34;22.10;94.10
24035;DHT22;12242;50.952;4.678;2022-07-31T01:48:03;22.20;94.50
24035;DHT22;12242;50.952;4.678;2022-07-31T01:50:32;22.20;94.20
24035;DHT22;12242;50.952;4.678;2022-07-31T01:53:16;22.10;94.50
24035;DHT22;12242;50.952;4.678;2022-07-31T01:55:45;22.10;94.60
24035;DHT22;12242;50.952;4.678;2022-07-31T01:58:34;22.10;95.20
24035;DHT22;12242;50.952;4.678;2022-07-31T02:01:05;22.00;95.40
24035;DHT22;12242;50.952;4.678;2022-07-31T02:03:38;22.10;95.40
24035;DHT22;12242;50.952;4.678;2022-07-31T02:06:16;22.20;95.60
24035;DHT22;12242;50.952;4.678;2022-07-31T02:08:50;22.10;96.20
24035;DHT22;12242;50.952;4.678;2022-07-31T02:11:19;21.90;96.70
24035;DHT22;12242;50.952;4.678;2022-07-31T02:13:48;22.00;96.90
24035;DHT22;12242;50.952;4.678;2022-07-31T02:16:17;22.00;97.00
24035;DHT22;12242;50.952;4.678;2022-07-31T02:18:51;22.00;97.40
24035;DHT22;12242;50.952;4.678;2022-07-31T02:21:20;21.90;98.00
24035;DHT22;12242;50.952;4.678;2022-07-31T02:23:48;21.90;98.40
24035;DHT22;12242;50.952;4.678;2022-07-31T02:26:16;21.90;98.70
24035;DHT22;12242;50.952;4.678;2022-07-31T02:28:45;21.90;98.80
24035;DHT22;12242;50.952;4.678;2022-07-31T02:31:16;22.00;98.80
24035;DHT22;12242;50.952;4.678;2022-07-31T02:33:45;22.00;98.90
24035;DHT22;12242;50.952;4.678;2022-07-31T02:36:18;22.00;99.10
24035;DHT22;12242;50.952;4.678;2022-07-31T02:38:52;21.90;99.30
24035;DHT22;12242;50.952;4.678;2022-07-31T02:41:21;21.80;99.50
24035;DHT22;12242;50.952;4.678;2022-07-31T02:43:50;21.90;99.80
24035;DHT22;12242;50.952;4.678;2022-07-31T02:46:18;21.80;99.90
24035;DHT22;12242;50.952;4.678;2022-07-31T02:48:46;21.80;99.90
24035;DHT22;12242;50.952;4.678;2022-07-31T02:51:15;21.80;99.90
24035;DHT22;12242;50.952;4.678;2022-07-31T02:53:43;21.80;99.90
24035;DHT22;12242;50.952;4.678;2022-07-31T02:56:12;21.90;99.90
24035;DHT22;12242;50.952;4.678;2022-07-31T02:58:41;21.80;99.90
24035;DHT22;12242;50.952;4.678;2022-07-31T03:01:11;21.80;99.90
24035;DHT22;12242;50.952;4.678;2022-07-31T03:03:40;21.70;99.90
24035;DHT22;12242;50.952;4.678;2022-07-31T03:06:08;21.70;99.90
24035;DHT22;12242;50.952;4.678;2022-07-31T03:08:38;21.70;99.90
24035;DHT22;12242;50.952;4.678;2022-07-31T03:11:06;21.80;99.90
24035;DHT22;12242;50.952;4.678;2022-07-31T03:13:35;21.80;99.90
24035;DHT22;12242;50.952;4.678;2022-07-31T03:16:08;21.90;99.90
24035;DHT22;12242;50.952;4.678;2022-07-31T03:18:41;21.80;99.90
24035;DHT22;12242;50.952;4.678;2022-07-31T03:21:09;21.90;99.90
24035;DHT22;12242;50.952;4.678;2022-07-31T03:23:40;21.90;99.90
24035;DHT22;12242;50.952;4.678;2022-07-31T03:26:10;21.80;99.90
24035;DHT22;12242;50.952;4.678;2022-07-31T03:28:38;21.80;99.90
24035;DHT22;12242;50.952;4.678;2022-07-31T03:31:08;21.60;99.90
24035;DHT22;12242;50.952;4.678;2022-07-31T03:33:36;21.50;99.90
24035;DHT22;12242;50.952;4.678;2022-07-31T03:36:03;21.50;99.90
24035;DHT22;12242;50.952;4.678;2022-07-31T03:38:31;21.50;99.90
24035;DHT22;12242;50.952;4.678;2022-07-31T03:41:09;21.60;99.90
24035;DHT22;12242;50.952;4.678;2022-07-31T03:43:41;21.50;99.90
24035;DHT22;12242;50.952;4.678;2022-07-31T03:46:15;21.40;99.90
24035;DHT22;12242;50.952;4.678;2022-07-31T03:48:47;21.50;99.90
24035;DHT22;12242;50.952;4.678;2022-07-31T03:51:19;21.50;99.90
24035;DHT22;12242;50.952;4.678;2022-07-31T03:53:47;21.40;99.90
24035;DHT22;12242;50.952;4.678;2022-07-31T03:56:18;21.50;99.90
24035;DHT22;12242;50.952;4.678;2022-07-31T03:58:46;21.40;99.90
24035;DHT22;12242;50.952;4.678;2022-07-31T04:01:19;21.40;99.90
24035;DHT22;12242;50.952;4.678;2022-07-31T04:03:47;21.40;99.90
24035;DHT22;12242;50.952;4.678;2022-07-31T04:06:15;21.50;99.90
24035;DHT22;12242;50.952;4.678;2022-07-31T04:08:42;21.50;99.90
24035;DHT22;12242;50.952;4.678;2022-07-31T04:11:09;21.40;99.90
24035;DHT22;12242;50.952;4.678;2022-07-31T04:13:37;21.40;99.90
24035;DHT22;12242;50.952;4.678;2022-07-31T04:16:06;21.40;99.90
24035;DHT22;12242;50.952;4.678;2022-07-31T04:18:33;21.30;99.90
24035;DHT22;12242;50.952;4.678;2022-07-31T04:21:01;21.40;99.90
24035;DHT22;12242;50.952;4.678;2022-07-31T04:23:31;21.40;99.90
24035;DHT22;12242;50.952;4.678;2022-07-31T04:25:58;21.40;99.90
24035;DHT22;12242;50.952;4.678;2022-07-31T04:28:26;21.30;99.90
24035;DHT22;12242;50.952;4.678;2022-07-31T04:30:54;21.30;99.90
24035;DHT22;12242;50.952;4.678;2022-07-31T04:33:21;21.20;99.90
24035;DHT22;12242;50.952;4.678;2022-07-31T04:35:48;21.40;99.90
24035;DHT22;12242;50.952;4.678;2022-07-31T04:38:16;21.30;99.90
24035;DHT22;12242;50.952;4.678;2022-07-31T04:40:46;21.20;99.90
24035;DHT22;12242;50.952;4.678;2022-07-31T04:43:16;21.10;99.90
24035;DHT22;12242;50.952;4.678;2022-07-31T04:45:44;21.10;99.90
24035;DHT22;12242;50.952;4.678;2022-07-31T04:48:11;21.10;99.90
24035;DHT22;12242;50.952;4.678;2022-07-31T04:50:41;21.10;99.90
24035;DHT22;12242;50.952;4.678;2022-07-31T04:53:14;21.20;99.90
24035;DHT22;12242;50.952;4.678;2022-07-31T04:55:41;21.30;99.90
24035;DHT22;12242;50.952;4.678;2022-07-31T04:58:11;21.30;99.90
24035;DHT22;12242;50.952;4.678;2022-07-31T05:00:42;21.30;99.90
24035;DHT22;12242;50.952;4.678;2022-07-31T05:03:10;21.30;99.90
24035;DHT22;12242;50.952;4.678;2022-07-31T05:05:37;21.30;99.90
24035;DHT22;12242;50.952;4.678;2022-07-31T05:08:05;21.30;99.90
24035;DHT22;12242;50.952;4.678;2022-07-31T05:10:34;21.30;99.90
24035;DHT22;12242;50.952;4.678;2022-07-31T05:13:21;21.40;99.90
24035;DHT22;12242;50.952;4.678;2022-07-31T05:15:48;21.40;99.90
24035;DHT22;12242;50.952;4.678;2022-07-31T05:18:20;21.40;99.90
24035;DHT22;12242;50.952;4.678;2022-07-31T05:20:49;21.60;99.90
24035;DHT22;12242;50.952;4.678;2022-07-31T05:23:17;21.50;99.90
24035;DHT22;12242;50.952;4.678;2022-07-31T05:25:46;21.50;99.90
24035;DHT22;12242;50.952;4.678;2022-07-31T05:28:13;21.50;99.90
24035;DHT22;12242;50.952;4.678;2022-07-31T05:30:42;21.50;99.90
24035;DHT22;12242;50.952;4.678;2022-07-31T05:33:14;21.50;99.90
24035;DHT22;12242;50.952;4.678;2022-07-31T05:35:44;21.50;99.90
24035;DHT22;12242;50.952;4.678;2022-07-31T05:38:12;21.50;99.90
24035;DHT22;12242;50.952;4.678;2022-07-31T05:40:39;21.50;99.90
24035;DHT22;12242;50.952;4.678;2022-07-31T05:43:08;21.50;99.90
24035;DHT22;12242;50.952;4.678;2022-07-31T05:45:39;21.50;99.90
24035;DHT22;12242;50.952;4.678;2022-07-31T05:48:09;21.60;99.90
24035;DHT22;12242;50.952;4.678;2022-07-31T05:50:36;21.60;99.90
24035;DHT22;12242;50.952;4.678;2022-07-31T05:53:06;21.70;99.90
24035;DHT22;12242;50.952;4.678;2022-07-31T05:55:36;21.60;99.90
24035;DHT22;12242;50.952;4.678;2022-07-31T05:58:06;21.60;99.90
24035;DHT22;12242;50.952;4.678;2022-07-31T06:00:34;21.70;99.90
24035;DHT22;12242;50.952;4.678;2022-07-31T06:03:01;21.70;99.90
24035;DHT22;12242;50.952;4.678;2022-07-31T06:05:32;21.70;99.90
24035;DHT22;12242;50.952;4.678;2022-07-31T06:08:00;21.70;99.90
24035;DHT22;12242;50.952;4.678;2022-07-31T06:10:30;21.70;99.90
24035;DHT22;12242;50.952;4.678;2022-07-31T06:12:57;21.80;99.90
24035;DHT22;12242;50.952;4.678;2022-07-31T06:15:27;21.90;99.90
24035;DHT22;12242;50.952;4.678;2022-07-31T06:18:05;22.00;99.90
24035;DHT22;12242;50.952;4.678;2022-07-31T06:20:33;22.00;99.90
24035;DHT22;12242;50.952;4.678;2022-07-31T06:23:03;22.10;99.90
24035;DHT22;12242;50.952;4.678;2022-07-31T06:25:51;22.20;99.90
24035;DHT22;12242;50.952;4.678;2022-07-31T06:28:20;22.10;99.90
24035;DHT22;12242;50.952;4.678;2022-07-31T06:31:15;22.20;99.90
24035;DHT22;12242;50.952;4.678;2022-07-31T06:33:43;22.30;99.90
24035;DHT22;12242;50.952;4.678;2022-07-31T06:36:15;22.30;99.90
24035;DHT22;12242;50.952;4.678;2022-07-31T06:38:45;22.40;99.90
24035;DHT22;12242;50.952;4.678;2022-07-31T06:41:13;22.40;99.90
24035;DHT22;12242;50.952;4.678;2022-07-31T06:43:59;22.50;99.90
24035;DHT22;12242;50.952;4.678;2022-07-31T06:46:28;22.50;99.90
24035;DHT22;12242;50.952;4.678;2022-07-31T06:48:58;22.40;99.90
24035;DHT22;12242;50.952;4.678;2022-07-31T06:51:26;22.40;99.90
24035;DHT22;12242;50.952;4.678;2022-07-31T06:53:58;22.30;99.90
24035;DHT22;12242;50.952;4.678;2022-07-31T06:56:29;22.50;99.90
24035;DHT22;12242;50.952;4.678;2022-07-31T06:58:57;22.50;99.90
24035;DHT22;12242;50.952;4.678;2022-07-31T07:01:28;22.60;99.90
24035;DHT22;12242;50.952;4.678;2022-07-31T07:03:55;22.70;99.90
24035;DHT22;12242;50.952;4.678;2022-07-31T07:06:26;22.60;99.90
24035;DHT22;12242;50.952;4.678;2022-07-31T07:08:56;22.80;99.90
24035;DHT22;12242;50.952;4.678;2022-07-31T07:11:24;22.90;99.90
24035;DHT22;12242;50.952;4.678;2022-07-31T07:13:51;22.90;99.90
24035;DHT22;12242;50.952;4.678;2022-07-31T07:16:19;22.90;99.90
24035;DHT22;12242;50.952;4.678;2022-07-31T07:18:47;23.10;99.90
24035;DHT22;12242;50.952;4.678;2022-07-31T07:21:14;23.00;99.90
24035;DHT22;12242;50.952;4.678;2022-07-31T07:23:44;23.00;99.90
24035;DHT22;12242;50.952;4.678;2022-07-31T07:26:11;23.00;99.90
24035;DHT22;12242;50.952;4.678;2022-07-31T07:28:39;23.20;99.90
24035;DHT22;12242;50.952;4.678;2022-07-31T07:31:07;23.30;99.90
24035;DHT22;12242;50.952;4.678;2022-07-31T07:33:35;23.40;99.90
24035;DHT22;12242;50.952;4.678;2022-07-31T07:36:09;23.40;99.90
24035;DHT22;12242;50.952;4.678;2022-07-31T07:38:52;23.40;99.90
24035;DHT22;12242;50.952;4.678;2022-07-31T07:41:25;23.50;99.90
24035;DHT22;12242;50.952;4.678;2022-07-31T07:43:55;23.80;99.90
24035;DHT22;12242;50.952;4.678;2022-07-31T07:46:23;23.90;99.90
24035;DHT22;12242;50.952;4.678;2022-07-31T07:48:54;24.10;99.90
24035;DHT22;12242;50.952;4.678;2022-07-31T07:51:22;24.20;99.90
24035;DHT22;12242;50.952;4.678;2022-07-31T07:53:49;24.50;99.90
24035;DHT22;12242;50.952;4.678;2022-07-31T07:56:17;24.70;99.90
24035;DHT22;12242;50.952;4.678;2022-07-31T07:58:44;24.90;99.90
24035;DHT22;12242;50.952;4.678;2022-07-31T08:01:14;25.00;99.90
24035;DHT22;12242;50.952;4.678;2022-07-31T08:03:41;25.10;99.90
24035;DHT22;12242;50.952;4.678;2022-07-31T08:06:20;25.10;99.90
24035;DHT22;12242;50.952;4.678;2022-07-31T08:08:48;25.10;99.90
24035;DHT22;12242;50.952;4.678;2022-07-31T08:11:18;25.10;99.90
24035;DHT22;12242;50.952;4.678;2022-07-31T08:13:46;25.10;99.90
24035;DHT22;12242;50.952;4.678;2022-07-31T08:16:18;25.00;99.90
24035;DHT22;12242;50.952;4.678;2022-07-31T08:18:49;25.10;99.90
24035;DHT22;12242;50.952;4.678;2022-07-31T08:21:20;25.30;99.90
24035;DHT22;12242;50.952;4.678;2022-07-31T08:23:50;25.40;99.90
24035;DHT22;12242;50.952;4.678;2022-07-31T08:26:18;25.50;99.90
24035;DHT22;12242;50.952;4.678;2022-07-31T08:28:47;25.40;99.90
24035;DHT22;12242;50.952;4.678;2022-07-31T08:31:19;25.40;99.90
24035;DHT22;12242;50.952;4.678;2022-07-31T08:33:47;25.30;99.90
24035;DHT22;12242;50.952;4.678;2022-07-31T08:36:14;25.30;99.90
24035;DHT22;12242;50.952;4.678;2022-07-31T08:38:42;25.90;99.90
24035;DHT22;12242;50.952;4.678;2022-07-31T08:41:12;26.80;99.50
24035;DHT22;12242;50.952;4.678;2022-07-31T08:43:40;27.10;97.20
24035;DHT22;12242;50.952;4.678;2022-07-31T08:46:28;27.00;97.00
24035;DHT22;12242;50.952;4.678;2022-07-31T08:48:56;27.10;97.10
24035;DHT22;12242;50.952;4.678;2022-07-31T08:51:24;27.80;97.30
24035;DHT22;12242;50.952;4.678;2022-07-31T08:53:55;28.40;95.10
24035;DHT22;12242;50.952;4.678;2022-07-31T08:56:23;28.60;94.00
24035;DHT22;12242;50.952;4.678;2022-07-31T08:58:54;28.80;92.80
24035;DHT22;12242;50.952;4.678;2022-07-31T09:01:23;28.70;92.50
24035;DHT22;12242;50.952;4.678;2022-07-31T09:03:51;28.60;91.90
24035;DHT22;12242;50.952;4.678;2022-07-31T09:06:19;28.50;92.50
24035;DHT22;12242;50.952;4.678;2022-07-31T09:08:46;28.60;92.00
24035;DHT22;12242;50.952;4.678;2022-07-31T09:11:16;29.10;93.00
24035;DHT22;12242;50.952;4.678;2022-07-31T09:14:02;29.60;91.40
24035;DHT22;12242;50.952;4.678;2022-07-31T09:16:30;29.90;90.00
24035;DHT22;12242;50.952;4.678;2022-07-31T09:19:10;29.70;89.20
24035;DHT22;12242;50.952;4.678;2022-07-31T09:21:57;29.40;90.00
24035;DHT22;12242;50.952;4.678;2022-07-31T09:24:30;29.50;90.80
24035;DHT22;12242;50.952;4.678;2022-07-31T09:27:07;29.60;89.30
24035;DHT22;12242;50.952;4.678;2022-07-31T09:29:37;29.30;89.80
24035;DHT22;12242;50.952;4.678;2022-07-31T09:32:08;29.30;90.80
24035;DHT22;12242;50.952;4.678;2022-07-31T09:34:35;29.50;88.50
24035;DHT22;12242;50.952;4.678;2022-07-31T09:37:10;29.80;89.60
24035;DHT22;12242;50.952;4.678;2022-07-31T09:39:39;29.90;88.10
24035;DHT22;12242;50.952;4.678;2022-07-31T09:42:19;30.10;87.20
24035;DHT22;12242;50.952;4.678;2022-07-31T09:44:49;30.10;87.80
24035;DHT22;12242;50.952;4.678;2022-07-31T09:47:26;29.90;86.60
24035;DHT22;12242;50.952;4.678;2022-07-31T09:50:00;29.70;87.10
24035;DHT22;12242;50.952;4.678;2022-07-31T09:52:29;29.40;86.20
24035;DHT22;12242;50.952;4.678;2022-07-31T09:55:13;29.40;87.30
24035;DHT22;12242;50.952;4.678;2022-07-31T09:57:55;29.20;88.50
24035;DHT22;12242;50.952;4.678;2022-07-31T10:00:24;29.00;87.80
24035;DHT22;12242;50.952;4.678;2022-07-31T10:02:55;28.50;88.70
24035;DHT22;12242;50.952;4.678;2022-07-31T10:05:24;28.10;90.50
24035;DHT22;12242;50.952;4.678;2022-07-31T10:07:56;27.90;90.20
24035;DHT22;12242;50.952;4.678;2022-07-31T10:10:43;27.70;90.40
24035;DHT22;12242;50.952;4.678;2022-07-31T10:13:14;28.10;90.80
24035;DHT22;12242;50.952;4.678;2022-07-31T10:15:44;28.10;90.20
24035;DHT22;12242;50.952;4.678;2022-07-31T10:18:16;27.80;90.20
24035;DHT22;12242;50.952;4.678;2022-07-31T10:21:04;27.60;91.10
24035;DHT22;12242;50.952;4.678;2022-07-31T10:23:39;27.70;90.60
24035;DHT22;12242;50.952;4.678;2022-07-31T10:26:07;27.80;91.20
24035;DHT22;12242;50.952;4.678;2022-07-31T10:28:40;27.90;90.70
24035;DHT22;12242;50.952;4.678;2022-07-31T10:31:11;28.10;90.30
24035;DHT22;12242;50.952;4.678;2022-07-31T10:33:39;28.40;90.30
24035;DHT22;12242;50.952;4.678;2022-07-31T10:36:18;28.50;89.60
24035;DHT22;12242;50.952;4.678;2022-07-31T10:42:01;28.90;90.10
24035;DHT22;12242;50.952;4.678;2022-07-31T10:44:39;29.20;90.00
24035;DHT22;12242;50.952;4.678;2022-07-31T10:47:16;28.80;88.40
24035;DHT22;12242;50.952;4.678;2022-07-31T10:49:50;28.60;88.70
24035;DHT22;12242;50.952;4.678;2022-07-31T10:54:54;28.10;90.30
24035;DHT22;12242;50.952;4.678;2022-07-31T10:57:26;27.80;90.10
24035;DHT22;12242;50.952;4.678;2022-07-31T10:59:54;27.60;90.70
24035;DHT22;12242;50.952;4.678;2022-07-31T11:02:30;27.50;91.50
24035;DHT22;12242;50.952;4.678;2022-07-31T11:05:18;27.40;91.40
24035;DHT22;12242;50.952;4.678;2022-07-31T11:08:03;27.40;92.10
24035;DHT22;12242;50.952;4.678;2022-07-31T11:10:36;27.50;91.40
24035;DHT22;12242;50.952;4.678;2022-07-31T11:13:15;27.50;92.10
24035;DHT22;12242;50.952;4.678;2022-07-31T11:15:44;27.80;91.50
24035;DHT22;12242;50.952;4.678;2022-07-31T11:18:16;28.60;92.10
24035;DHT22;12242;50.952;4.678;2022-07-31T11:21:04;29.20;90.30
24035;DHT22;12242;50.952;4.678;2022-07-31T11:23:52;29.70;89.60
24035;DHT22;12242;50.952;4.678;2022-07-31T11:26:28;29.60;87.10
24035;DHT22;12242;50.952;4.678;2022-07-31T11:29:08;29.00;90.30
24035;DHT22;12242;50.952;4.678;2022-07-31T11:32:14;28.70;89.30
24035;DHT22;12242;50.952;4.678;2022-07-31T11:34:53;28.50;89.60
24035;DHT22;12242;50.952;4.678;2022-07-31T11:37:26;28.20;89.70
24035;DHT22;12242;50.952;4.678;2022-07-31T11:40:12;27.80;90.50
24035;DHT22;12242;50.952;4.678;2022-07-31T11:42:42;27.50;91.10
24035;DHT22;12242;50.952;4.678;2022-07-31T11:45:10;27.40;91.40
24035;DHT22;12242;50.952;4.678;2022-07-31T11:47:39;27.70;91.60
24035;DHT22;12242;50.952;4.678;2022-07-31T11:50:27;27.60;91.50
24035;DHT22;12242;50.952;4.678;2022-07-31T11:53:02;27.70;92.00
24035;DHT22;12242;50.952;4.678;2022-07-31T11:55:30;28.00;92.10
24035;DHT22;12242;50.952;4.678;2022-07-31T11:57:58;28.10;92.00
24035;DHT22;12242;50.952;4.678;2022-07-31T12:00:26;28.00;91.30
24035;DHT22;12242;50.952;4.678;2022-07-31T12:02:56;27.80;91.30
24035;DHT22;12242;50.952;4.678;2022-07-31T12:05:24;27.60;91.40
24035;DHT22;12242;50.952;4.678;2022-07-31T12:08:05;27.40;91.50
24035;DHT22;12242;50.952;4.678;2022-07-31T12:10:34;27.40;92.10
24035;DHT22;12242;50.952;4.678;2022-07-31T12:13:01;27.70;92.20
24035;DHT22;12242;50.952;4.678;2022-07-31T12:15:29;28.00;91.60
24035;DHT22;12242;50.952;4.678;2022-07-31T12:18:09;28.50;92.30
24035;DHT22;12242;50.952;4.678;2022-07-31T12:20:37;28.80;90.80
24035;DHT22;12242;50.952;4.678;2022-07-31T12:23:07;28.80;90.70
24035;DHT22;12242;50.952;4.678;2022-07-31T12:25:55;28.50;90.40
24035;DHT22;12242;50.952;4.678;2022-07-31T12:28:25;28.40;90.70
24035;DHT22;12242;50.952;4.678;2022-07-31T12:30:57;28.50;90.50
24035;DHT22;12242;50.952;4.678;2022-07-31T12:33:41;28.60;90.40
24035;DHT22;12242;50.952;4.678;2022-07-31T12:36:14;28.70;90.50
24035;DHT22;12242;50.952;4.678;2022-07-31T12:38:43;28.50;90.00
24035;DHT22;12242;50.952;4.678;2022-07-31T12:41:15;28.50;90.90
24035;DHT22;12242;50.952;4.678;2022-07-31T12:43:43;28.50;90.80
24035;DHT22;12242;50.952;4.678;2022-07-31T12:46:33;28.30;90.40
24035;DHT22;12242;50.952;4.678;2022-07-31T12:49:04;28.20;90.70
24035;DHT22;12242;50.952;4.678;2022-07-31T12:51:35;28.30;91.20
24035;DHT22;12242;50.952;4.678;2022-07-31T12:54:15;28.40;90.90
24035;DHT22;12242;50.952;4.678;2022-07-31T12:56:43;28.30;90.90
24035;DHT22;12242;50.952;4.678;2022-07-31T12:59:14;28.20;91.20
24035;DHT22;12242;50.952;4.678;2022-07-31T13:01:41;28.00;91.50
24035;DHT22;12242;50.952;4.678;2022-07-31T13:04:08;28.00;91.70
24035;DHT22;12242;50.952;4.678;2022-07-31T13:06:46;28.00;91.40
24035;DHT22;12242;50.952;4.678;2022-07-31T13:09:26;27.90;91.30
24035;DHT22;12242;50.952;4.678;2022-07-31T13:11:57;27.80;91.60
24035;DHT22;12242;50.952;4.678;2022-07-31T13:14:29;27.80;91.50
24035;DHT22;12242;50.952;4.678;2022-07-31T13:16:59;28.00;92.40
24035;DHT22;12242;50.952;4.678;2022-07-31T13:19:27;28.10;92.00
24035;DHT22;12242;50.952;4.678;2022-07-31T13:21:54;28.00;91.30
24035;DHT22;12242;50.952;4.678;2022-07-31T13:24:23;27.90;91.60
24035;DHT22;12242;50.952;4.678;2022-07-31T13:26:52;27.90;91.50
24035;DHT22;12242;50.952;4.678;2022-07-31T13:29:20;27.70;91.70
24035;DHT22;12242;50.952;4.678;2022-07-31T13:31:50;27.60;91.90
24035;DHT22;12242;50.952;4.678;2022-07-31T13:34:17;27.30;92.40
24035;DHT22;12242;50.952;4.678;2022-07-31T13:36:45;27.10;92.60
24035;DHT22;12242;50.952;4.678;2022-07-31T13:39:14;27.00;93.00
24035;DHT22;12242;50.952;4.678;2022-07-31T13:41:42;27.00;93.10
24035;DHT22;12242;50.952;4.678;2022-07-31T13:44:12;27.00;92.80
24035;DHT22;12242;50.952;4.678;2022-07-31T13:46:40;27.00;93.10
24035;DHT22;12242;50.952;4.678;2022-07-31T13:49:07;27.20;92.80
24035;DHT22;12242;50.952;4.678;2022-07-31T13:51:36;27.40;92.90
24035;DHT22;12242;50.952;4.678;2022-07-31T13:54:04;27.60;93.50
24035;DHT22;12242;50.952;4.678;2022-07-31T13:56:36;28.00;92.70
24035;DHT22;12242;50.952;4.678;2022-07-31T13:59:10;28.20;92.10
24035;DHT22;12242;50.952;4.678;2022-07-31T14:01:40;28.20;91.70
24035;DHT22;12242;50.952;4.678;2022-07-31T14:04:29;28.00;91.60
24035;DHT22;12242;50.952;4.678;2022-07-31T14:07:03;27.90;91.80
24035;DHT22;12242;50.952;4.678;2022-07-31T14:09:33;27.90;92.30
24035;DHT22;12242;50.952;4.678;2022-07-31T14:12:01;27.80;91.90
24035;DHT22;12242;50.952;4.678;2022-07-31T14:14:30;27.60;91.90
24035;DHT22;12242;50.952;4.678;2022-07-31T14:16:58;27.50;92.30
24035;DHT22;12242;50.952;4.678;2022-07-31T14:19:28;27.60;92.50
24035;DHT22;12242;50.952;4.678;2022-07-31T14:22:10;27.80;92.90
24035;DHT22;12242;50.952;4.678;2022-07-31T14:24:40;28.00;92.40
24035;DHT22;12242;50.952;4.678;2022-07-31T14:27:19;28.10;92.10
24035;DHT22;12242;50.952;4.678;2022-07-31T14:29:47;28.00;91.80
24035;DHT22;12242;50.952;4.678;2022-07-31T14:32:17;27.90;92.50
24035;DHT22;12242;50.952;4.678;2022-07-31T14:34:45;27.70;91.70
24035;DHT22;12242;50.952;4.678;2022-07-31T14:37:12;27.60;92.00
24035;DHT22;12242;50.952;4.678;2022-07-31T14:39:42;27.60;92.20
24035;DHT22;12242;50.952;4.678;2022-07-31T14:42:10;27.60;92.10
24035;DHT22;12242;50.952;4.678;2022-07-31T14:44:39;27.50;92.50
24035;DHT22;12242;50.952;4.678;2022-07-31T14:47:12;27.40;92.30
24035;DHT22;12242;50.952;4.678;2022-07-31T14:49:40;27.40;92.70
24035;DHT22;12242;50.952;4.678;2022-07-31T14:52:28;27.50;92.70
24035;DHT22;12242;50.952;4.678;2022-07-31T14:54:58;27.50;92.70
24035;DHT22;12242;50.952;4.678;2022-07-31T14:57:27;27.40;92.90
24035;DHT22;12242;50.952;4.678;2022-07-31T14:59:56;27.30;92.80
24035;DHT22;12242;50.952;4.678;2022-07-31T15:02:26;27.30;92.40
24035;DHT22;12242;50.952;4.678;2022-07-31T15:04:54;27.30;92.50
24035;DHT22;12242;50.952;4.678;2022-07-31T15:07:24;27.10;92.80
24035;DHT22;12242;50.952;4.678;2022-07-31T15:10:06;27.10;92.80
24035;DHT22;12242;50.952;4.678;2022-07-31T15:12:34;27.10;92.80
24035;DHT22;12242;50.952;4.678;2022-07-31T15:15:01;27.00;92.60
24035;DHT22;12242;50.952;4.678;2022-07-31T15:17:29;27.00;92.90
24035;DHT22;12242;50.952;4.678;2022-07-31T15:19:58;27.00;93.20
24035;DHT22;12242;50.952;4.678;2022-07-31T15:22:25;27.00;92.70
24035;DHT22;12242;50.952;4.678;2022-07-31T15:24:53;26.90;92.80
24035;DHT22;12242;50.952;4.678;2022-07-31T15:27:20;26.70;92.60
24035;DHT22;12242;50.952;4.678;2022-07-31T15:29:51;26.80;93.10
24035;DHT22;12242;50.952;4.678;2022-07-31T15:32:35;26.70;93.10
24035;DHT22;12242;50.952;4.678;2022-07-31T15:35:04;26.70;92.90
24035;DHT22;12242;50.952;4.678;2022-07-31T15:37:34;26.80;93.10
24035;DHT22;12242;50.952;4.678;2022-07-31T15:40:06;26.70;93.40
24035;DHT22;12242;50.952;4.678;2022-07-31T15:42:38;26.60;93.10
24035;DHT22;12242;50.952;4.678;2022-07-31T15:45:14;26.60;93.10
24035;DHT22;12242;50.952;4.678;2022-07-31T15:47:44;26.50;93.20
24035;DHT22;12242;50.952;4.678;2022-07-31T15:50:14;26.40;93.00
24035;DHT22;12242;50.952;4.678;2022-07-31T15:52:42;26.40;92.80
24035;DHT22;12242;50.952;4.678;2022-07-31T15:55:09;26.40;93.10
24035;DHT22;12242;50.952;4.678;2022-07-31T15:57:38;26.30;93.00
24035;DHT22;12242;50.952;4.678;2022-07-31T16:00:14;26.30;92.80
24035;DHT22;12242;50.952;4.678;2022-07-31T16:02:42;26.30;93.30